sensor_id;sensor_type;location;lat;lon;timestamp;P1;P2;P0
76101;PMS7003;64830;46.910;6.354;2023-12-29T00:01:19;4.50;4.00;3.00
76101;PMS7003;64830;46.910;6.354;2023-12-29T00:03:44;4.50;4.50;3.00
76101;PMS7003;64830;46.910;6.354;2023-12-29T00:06:10;3.75;3.75;3.25
76101;PMS7003;64830;46.910;6.354;2023-12-29T00:08:38;6.75;6.00;4.00
76101;PMS7003;64830;46.910;6.354;2023-12-29T00:11:03;5.75;3.75;3.50
76101;PMS7003;64830;46.910;6.354;2023-12-29T00:13:29;4.00;3.00;3.00
76101;PMS7003;64830;46.910;6.354;2023-12-29T00:15:55;5.00;5.00;4.00
76101;PMS7003;64830;46.910;6.354;2023-12-29T00:18:21;6.75;5.00;3.75
76101;PMS7003;64830;46.910;6.354;2023-12-29T00:20:47;3.00;3.00;2.25
76101;PMS7003;64830;46.910;6.354;2023-12-29T00:23:13;5.75;4.00;3.25
76101;PMS7003;64830;46.910;6.354;2023-12-29T00:25:38;5.25;5.00;3.00
76101;PMS7003;64830;46.910;6.354;2023-12-29T00:28:04;7.75;4.25;3.50
76101;PMS7003;64830;46.910;6.354;2023-12-29T00:30:30;6.00;6.00;5.50
76101;PMS7003;64830;46.910;6.354;2023-12-29T00:32:56;6.00;6.00;6.00
76101;PMS7003;64830;46.910;6.354;2023-12-29T00:35:21;9.25;7.00;6.00
76101;PMS7003;64830;46.910;6.354;2023-12-29T00:37:47;8.00;6.00;4.00
76101;PMS7003;64830;46.910;6.354;2023-12-29T00:40:12;6.00;6.00;4.00
76101;PMS7003;64830;46.910;6.354;2023-12-29T00:42:38;7.00;6.00;4.25
76101;PMS7003;64830;46.910;6.354;2023-12-29T00:45:04;6.25;4.50;3.25
76101;PMS7003;64830;46.910;6.354;2023-12-29T00:47:30;5.50;4.25;3.75
76101;PMS7003;64830;46.910;6.354;2023-12-29T00:49:55;5.00;4.00;3.75
76101;PMS7003;64830;46.910;6.354;2023-12-29T00:52:21;6.75;6.00;3.75
76101;PMS7003;64830;46.910;6.354;2023-12-29T00:54:46;5.50;4.00;3.00
76101;PMS7003;64830;46.910;6.354;2023-12-29T00:57:12;4.25;4.25;3.00
76101;PMS7003;64830;46.910;6.354;2023-12-29T00:59:37;6.00;6.00;4.25
76101;PMS7003;64830;46.910;6.354;2023-12-29T01:02:06;4.25;4.25;3.00
76101;PMS7003;64830;46.910;6.354;2023-12-29T01:04:31;3.75;3.00;2.50
76101;PMS7003;64830;46.910;6.354;2023-12-29T01:06:57;3.00;3.00;3.00
76101;PMS7003;64830;46.910;6.354;2023-12-29T01:09:22;4.00;4.00;3.00
76101;PMS7003;64830;46.910;6.354;2023-12-29T01:11:48;3.25;3.25;2.25
76101;PMS7003;64830;46.910;6.354;2023-12-29T01:14:13;2.00;2.00;1.00
76101;PMS7003;64830;46.910;6.354;2023-12-29T01:16:39;6.50;2.50;2.00
76101;PMS7003;64830;46.910;6.354;2023-12-29T01:19:05;3.00;3.00;2.75
76101;PMS7003;64830;46.910;6.354;2023-12-29T01:21:30;6.00;3.75;2.75
76101;PMS7003;64830;46.910;6.354;2023-12-29T01:24:02;4.50;3.00;2.00
76101;PMS7003;64830;46.910;6.354;2023-12-29T01:26:29;4.25;4.00;3.00
76101;PMS7003;64830;46.910;6.354;2023-12-29T01:28:55;4.00;4.00;3.00
76101;PMS7003;64830;46.910;6.354;2023-12-29T01:31:20;3.75;3.00;3.00
76101;PMS7003;64830;46.910;6.354;2023-12-29T01:33:46;3.00;3.00;2.75
76101;PMS7003;64830;46.910;6.354;2023-12-29T01:36:20;4.00;4.00;3.75
76101;PMS7003;64830;46.910;6.354;2023-12-29T01:38:45;5.50;5.00;3.00
76101;PMS7003;64830;46.910;6.354;2023-12-29T01:41:11;6.00;4.25;3.00
76101;PMS7003;64830;46.910;6.354;2023-12-29T01:43:36;2.75;2.75;2.00
76101;PMS7003;64830;46.910;6.354;2023-12-29T01:46:24;5.25;2.25;2.00
76101;PMS7003;64830;46.910;6.354;2023-12-29T01:48:51;3.00;3.00;1.75
76101;PMS7003;64830;46.910;6.354;2023-12-29T01:51:17;4.50;4.00;3.75
76101;PMS7003;64830;46.910;6.354;2023-12-29T01:53:44;5.50;5.50;4.00
76101;PMS7003;64830;46.910;6.354;2023-12-29T01:56:10;4.25;2.00;2.00
76101;PMS7003;64830;46.910;6.354;2023-12-29T01:58:36;2.50;2.00;2.00
76101;PMS7003;64830;46.910;6.354;2023-12-29T02:01:02;6.00;3.00;2.25
76101;PMS7003;64830;46.910;6.354;2023-12-29T02:03:29;5.00;3.50;3.00
76101;PMS7003;64830;46.910;6.354;2023-12-29T02:05:55;6.75;4.00;3.00
76101;PMS7003;64830;46.910;6.354;2023-12-29T02:08:23;6.00;4.00;3.00
76101;PMS7003;64830;46.910;6.354;2023-12-29T02:10:48;2.50;2.50;2.00
76101;PMS7003;64830;46.910;6.354;2023-12-29T02:13:14;3.75;3.75;3.00
76101;PMS7003;64830;46.910;6.354;2023-12-29T02:15:40;3.50;3.50;3.00
76101;PMS7003;64830;46.910;6.354;2023-12-29T02:18:06;4.25;4.00;3.00
76101;PMS7003;64830;46.910;6.354;2023-12-29T02:20:34;2.00;2.00;2.00
76101;PMS7003;64830;46.910;6.354;2023-12-29T02:22:59;3.75;3.00;2.25
76101;PMS7003;64830;46.910;6.354;2023-12-29T02:25:25;5.25;3.75;3.00
76101;PMS7003;64830;46.910;6.354;2023-12-29T02:33:30;6.00;5.50;4.00
76101;PMS7003;64830;46.910;6.354;2023-12-29T02:36:01;3.50;3.50;3.00
76101;PMS7003;64830;46.910;6.354;2023-12-29T02:38:28;6.00;3.50;3.00
76101;PMS7003;64830;46.910;6.354;2023-12-29T02:40:57;9.00;4.00;3.00
76101;PMS7003;64830;46.910;6.354;2023-12-29T02:43:23;2.00;2.00;1.50
76101;PMS7003;64830;46.910;6.354;2023-12-29T02:45:49;5.50;4.25;4.00
76101;PMS7003;64830;46.910;6.354;2023-12-29T02:48:14;4.25;3.00;2.50
76101;PMS7003;64830;46.910;6.354;2023-12-29T02:50:40;6.50;5.25;3.75
76101;PMS7003;64830;46.910;6.354;2023-12-29T02:53:06;7.00;5.75;3.25
76101;PMS7003;64830;46.910;6.354;2023-12-29T02:55:31;4.75;4.00;3.00
76101;PMS7003;64830;46.910;6.354;2023-12-29T02:57:57;4.00;4.00;3.50
76101;PMS7003;64830;46.910;6.354;2023-12-29T03:00:22;4.25;3.75;3.25
76101;PMS7003;64830;46.910;6.354;2023-12-29T03:02:48;4.75;3.00;2.50
76101;PMS7003;64830;46.910;6.354;2023-12-29T03:05:14;4.00;2.75;2.50
76101;PMS7003;64830;46.910;6.354;2023-12-29T03:07:39;2.50;2.50;2.00
76101;PMS7003;64830;46.910;6.354;2023-12-29T03:10:06;5.00;5.00;3.50
76101;PMS7003;64830;46.910;6.354;2023-12-29T03:12:32;6.25;3.75;3.25
76101;PMS7003;64830;46.910;6.354;2023-12-29T03:14:57;3.00;3.00;2.50
76101;PMS7003;64830;46.910;6.354;2023-12-29T03:17:22;4.00;3.00;3.00
76101;PMS7003;64830;46.910;6.354;2023-12-29T03:19:48;5.00;4.50;4.25
76101;PMS7003;64830;46.910;6.354;2023-12-29T03:22:13;6.75;5.00;3.00
76101;PMS7003;64830;46.910;6.354;2023-12-29T03:24:40;4.25;3.00;3.00
76101;PMS7003;64830;46.910;6.354;2023-12-29T03:27:06;4.00;4.00;3.25
76101;PMS7003;64830;46.910;6.354;2023-12-29T03:29:32;3.00;3.00;3.00
76101;PMS7003;64830;46.910;6.354;2023-12-29T03:31:57;3.00;3.00;3.00
76101;PMS7003;64830;46.910;6.354;2023-12-29T03:34:22;3.00;3.00;2.75
76101;PMS7003;64830;46.910;6.354;2023-12-29T03:36:48;3.25;3.25;3.00
76101;PMS7003;64830;46.910;6.354;2023-12-29T03:39:13;3.25;3.25;3.00
76101;PMS7003;64830;46.910;6.354;2023-12-29T03:41:39;3.00;3.00;3.00
76101;PMS7003;64830;46.910;6.354;2023-12-29T03:44:04;3.25;3.25;2.50
76101;PMS7003;64830;46.910;6.354;2023-12-29T03:46:31;3.25;2.75;2.25
76101;PMS7003;64830;46.910;6.354;2023-12-29T03:48:56;3.00;3.00;2.00
76101;PMS7003;64830;46.910;6.354;2023-12-29T03:51:22;4.25;4.25;3.00
76101;PMS7003;64830;46.910;6.354;2023-12-29T03:53:47;1.00;1.00;1.00
76101;PMS7003;64830;46.910;6.354;2023-12-29T03:56:14;4.00;2.75;2.50
76101;PMS7003;64830;46.910;6.354;2023-12-29T03:58:41;3.50;3.50;3.50
76101;PMS7003;64830;46.910;6.354;2023-12-29T04:01:12;2.00;2.00;2.00
76101;PMS7003;64830;46.910;6.354;2023-12-29T04:03:39;5.50;3.00;2.25
76101;PMS7003;64830;46.910;6.354;2023-12-29T04:06:05;4.50;3.00;2.50
76101;PMS7003;64830;46.910;6.354;2023-12-29T04:08:32;3.00;2.00;2.00
76101;PMS7003;64830;46.910;6.354;2023-12-29T04:11:01;3.75;3.75;3.00
76101;PMS7003;64830;46.910;6.354;2023-12-29T04:13:27;2.25;2.25;2.00
76101;PMS7003;64830;46.910;6.354;2023-12-29T04:15:52;2.00;2.00;2.00
76101;PMS7003;64830;46.910;6.354;2023-12-29T04:18:20;2.50;2.25;2.00
76101;PMS7003;64830;46.910;6.354;2023-12-29T04:20:46;3.00;2.00;2.00
76101;PMS7003;64830;46.910;6.354;2023-12-29T04:23:11;1.75;1.75;1.25
76101;PMS7003;64830;46.910;6.354;2023-12-29T04:25:37;1.00;1.00;1.00
76101;PMS7003;64830;46.910;6.354;2023-12-29T04:28:03;1.50;1.50;1.00
76101;PMS7003;64830;46.910;6.354;2023-12-29T04:30:29;0.75;0.75;0.75
76101;PMS7003;64830;46.910;6.354;2023-12-29T04:32:54;0.25;0.25;0.00
76101;PMS7003;64830;46.910;6.354;2023-12-29T04:35:19;1.00;1.00;1.00
76101;PMS7003;64830;46.910;6.354;2023-12-29T04:37:45;1.50;0.00;0.00
76101;PMS7003;64830;46.910;6.354;2023-12-29T04:40:14;1.00;0.00;0.00
76101;PMS7003;64830;46.910;6.354;2023-12-29T04:42:40;2.75;1.00;1.00
76101;PMS7003;64830;46.910;6.354;2023-12-29T04:45:05;1.00;1.00;1.00
76101;PMS7003;64830;46.910;6.354;2023-12-29T04:47:32;1.00;1.00;1.00
76101;PMS7003;64830;46.910;6.354;2023-12-29T04:49:57;0.00;0.00;0.00
76101;PMS7003;64830;46.910;6.354;2023-12-29T04:52:23;0.00;0.00;0.00
76101;PMS7003;64830;46.910;6.354;2023-12-29T04:54:48;1.00;0.00;0.00
76101;PMS7003;64830;46.910;6.354;2023-12-29T04:57:14;0.00;0.00;0.00
76101;PMS7003;64830;46.910;6.354;2023-12-29T04:59:39;1.00;0.00;0.00
76101;PMS7003;64830;46.910;6.354;2023-12-29T05:02:05;0.75;0.75;0.75
76101;PMS7003;64830;46.910;6.354;2023-12-29T05:04:30;0.75;0.75;0.00
76101;PMS7003;64830;46.910;6.354;2023-12-29T05:06:56;0.00;0.00;0.00
76101;PMS7003;64830;46.910;6.354;2023-12-29T05:09:21;2.00;0.00;0.00
76101;PMS7003;64830;46.910;6.354;2023-12-29T05:11:47;0.00;0.00;0.00
76101;PMS7003;64830;46.910;6.354;2023-12-29T05:14:13;0.00;0.00;0.00
76101;PMS7003;64830;46.910;6.354;2023-12-29T05:16:38;0.00;0.00;0.00
76101;PMS7003;64830;46.910;6.354;2023-12-29T05:19:03;0.00;0.00;0.00
76101;PMS7003;64830;46.910;6.354;2023-12-29T05:21:29;0.00;0.00;0.00
76101;PMS7003;64830;46.910;6.354;2023-12-29T05:23:55;0.00;0.00;0.00
76101;PMS7003;64830;46.910;6.354;2023-12-29T05:26:21;0.00;0.00;0.00
76101;PMS7003;64830;46.910;6.354;2023-12-29T05:28:46;0.00;0.00;0.00
76101;PMS7003;64830;46.910;6.354;2023-12-29T05:31:12;0.00;0.00;0.00
76101;PMS7003;64830;46.910;6.354;2023-12-29T05:33:37;0.00;0.00;0.00
76101;PMS7003;64830;46.910;6.354;2023-12-29T05:36:06;0.25;0.25;0.00
76101;PMS7003;64830;46.910;6.354;2023-12-29T05:38:33;1.00;0.00;0.00
76101;PMS7003;64830;46.910;6.354;2023-12-29T05:40:58;0.00;0.00;0.00
76101;PMS7003;64830;46.910;6.354;2023-12-29T05:43:26;0.00;0.00;0.00
76101;PMS7003;64830;46.910;6.354;2023-12-29T05:45:51;1.00;0.00;0.00
76101;PMS7003;64830;46.910;6.354;2023-12-29T05:48:17;0.00;0.00;0.00
76101;PMS7003;64830;46.910;6.354;2023-12-29T05:50:42;0.00;0.00;0.00
76101;PMS7003;64830;46.910;6.354;2023-12-29T05:53:08;0.00;0.00;0.00
76101;PMS7003;64830;46.910;6.354;2023-12-29T05:55:33;0.00;0.00;0.00
76101;PMS7003;64830;46.910;6.354;2023-12-29T05:57:59;0.00;0.00;0.00
76101;PMS7003;64830;46.910;6.354;2023-12-29T06:00:25;0.00;0.00;0.00
76101;PMS7003;64830;46.910;6.354;2023-12-29T06:02:50;1.00;1.00;1.00
76101;PMS7003;64830;46.910;6.354;2023-12-29T06:05:16;1.00;1.00;1.00
76101;PMS7003;64830;46.910;6.354;2023-12-29T06:07:41;2.00;2.00;2.00
76101;PMS7003;64830;46.910;6.354;2023-12-29T06:10:07;3.00;1.00;1.00
76101;PMS7003;64830;46.910;6.354;2023-12-29T06:12:34;2.25;1.00;1.00
76101;PMS7003;64830;46.910;6.354;2023-12-29T06:14:59;1.00;1.00;1.00
76101;PMS7003;64830;46.910;6.354;2023-12-29T06:17:25;1.00;1.00;1.00
76101;PMS7003;64830;46.910;6.354;2023-12-29T06:19:50;2.00;2.00;2.00
76101;PMS7003;64830;46.910;6.354;2023-12-29T06:22:16;1.00;1.00;1.00
76101;PMS7003;64830;46.910;6.354;2023-12-29T06:24:41;1.25;1.00;1.00
76101;PMS7003;64830;46.910;6.354;2023-12-29T06:27:09;0.00;0.00;0.00
76101;PMS7003;64830;46.910;6.354;2023-12-29T06:29:36;0.50;0.50;0.25
76101;PMS7003;64830;46.910;6.354;2023-12-29T06:32:02;1.50;1.00;1.00
76101;PMS7003;64830;46.910;6.354;2023-12-29T06:34:28;2.00;2.00;1.25
76101;PMS7003;64830;46.910;6.354;2023-12-29T06:36:53;1.25;1.00;1.00
76101;PMS7003;64830;46.910;6.354;2023-12-29T06:39:19;1.00;1.00;1.00
76101;PMS7003;64830;46.910;6.354;2023-12-29T06:41:44;1.00;1.00;1.00
76101;PMS7003;64830;46.910;6.354;2023-12-29T06:44:09;1.00;1.00;1.00
76101;PMS7003;64830;46.910;6.354;2023-12-29T06:46:38;1.00;1.00;1.00
76101;PMS7003;64830;46.910;6.354;2023-12-29T06:49:04;0.50;0.50;0.25
76101;PMS7003;64830;46.910;6.354;2023-12-29T06:51:32;3.00;2.00;2.00
76101;PMS7003;64830;46.910;6.354;2023-12-29T06:53:57;2.00;2.00;1.00
76101;PMS7003;64830;46.910;6.354;2023-12-29T06:56:23;7.00;3.75;3.00
76101;PMS7003;64830;46.910;6.354;2023-12-29T06:58:48;3.25;3.25;3.00
76101;PMS7003;64830;46.910;6.354;2023-12-29T07:01:14;4.50;3.50;3.25
76101;PMS7003;64830;46.910;6.354;2023-12-29T07:03:41;6.75;6.50;6.00
76101;PMS7003;64830;46.910;6.354;2023-12-29T07:06:06;2.25;2.00;1.50
76101;PMS7003;64830;46.910;6.354;2023-12-29T07:08:31;3.00;3.00;2.75
76101;PMS7003;64830;46.910;6.354;2023-12-29T07:10:57;3.25;3.25;2.25
76101;PMS7003;64830;46.910;6.354;2023-12-29T07:13:23;5.00;3.00;2.00
76101;PMS7003;64830;46.910;6.354;2023-12-29T07:15:49;1.00;1.00;1.00
76101;PMS7003;64830;46.910;6.354;2023-12-29T07:18:14;2.00;1.25;1.00
76101;PMS7003;64830;46.910;6.354;2023-12-29T07:20:40;1.50;1.00;1.00
76101;PMS7003;64830;46.910;6.354;2023-12-29T07:23:06;5.50;5.50;3.50
76101;PMS7003;64830;46.910;6.354;2023-12-29T07:25:32;6.00;4.00;3.00
76101;PMS7003;64830;46.910;6.354;2023-12-29T07:27:57;6.00;6.00;4.25
76101;PMS7003;64830;46.910;6.354;2023-12-29T07:30:23;9.50;8.00;7.25
76101;PMS7003;64830;46.910;6.354;2023-12-29T07:32:48;3.00;3.00;2.00
76101;PMS7003;64830;46.910;6.354;2023-12-29T07:35:13;2.00;1.00;1.00
76101;PMS7003;64830;46.910;6.354;2023-12-29T07:37:46;1.00;0.75;0.25
76101;PMS7003;64830;46.910;6.354;2023-12-29T07:40:11;0.00;0.00;0.00
76101;PMS7003;64830;46.910;6.354;2023-12-29T07:42:39;1.00;1.00;1.00
76101;PMS7003;64830;46.910;6.354;2023-12-29T07:45:05;0.00;0.00;0.00
76101;PMS7003;64830;46.910;6.354;2023-12-29T07:47:31;0.75;0.75;0.75
76101;PMS7003;64830;46.910;6.354;2023-12-29T07:49:57;1.00;1.00;1.00
76101;PMS7003;64830;46.910;6.354;2023-12-29T07:52:22;0.50;0.50;0.00
76101;PMS7003;64830;46.910;6.354;2023-12-29T07:54:48;0.25;0.25;0.25
76101;PMS7003;64830;46.910;6.354;2023-12-29T07:57:14;0.00;0.00;0.00
76101;PMS7003;64830;46.910;6.354;2023-12-29T07:59:39;2.75;1.00;1.00
76101;PMS7003;64830;46.910;6.354;2023-12-29T08:02:05;0.00;0.00;0.00
76101;PMS7003;64830;46.910;6.354;2023-12-29T08:04:31;0.00;0.00;0.00
76101;PMS7003;64830;46.910;6.354;2023-12-29T08:06:56;0.00;0.00;0.00
76101;PMS7003;64830;46.910;6.354;2023-12-29T08:09:21;0.25;0.25;0.00
76101;PMS7003;64830;46.910;6.354;2023-12-29T08:11:47;0.00;0.00;0.00
76101;PMS7003;64830;46.910;6.354;2023-12-29T08:14:13;0.00;0.00;0.00
76101;PMS7003;64830;46.910;6.354;2023-12-29T08:16:38;1.50;1.00;1.00
76101;PMS7003;64830;46.910;6.354;2023-12-29T08:19:05;1.00;1.00;1.00
76101;PMS7003;64830;46.910;6.354;2023-12-29T08:21:31;1.00;1.00;1.00
76101;PMS7003;64830;46.910;6.354;2023-12-29T08:23:57;0.00;0.00;0.00
76101;PMS7003;64830;46.910;6.354;2023-12-29T08:26:22;0.00;0.00;0.00
76101;PMS7003;64830;46.910;6.354;2023-12-29T08:28:47;0.00;0.00;0.00
76101;PMS7003;64830;46.910;6.354;2023-12-29T08:31:14;1.25;0.00;0.00
76101;PMS7003;64830;46.910;6.354;2023-12-29T08:33:40;1.00;1.00;0.25
76101;PMS7003;64830;46.910;6.354;2023-12-29T08:36:05;1.00;1.00;1.00
76101;PMS7003;64830;46.910;6.354;2023-12-29T08:38:31;1.00;0.00;0.00
76101;PMS7003;64830;46.910;6.354;2023-12-29T08:40:57;0.00;0.00;0.00
76101;PMS7003;64830;46.910;6.354;2023-12-29T08:43:23;0.50;0.50;0.50
76101;PMS7003;64830;46.910;6.354;2023-12-29T08:45:48;1.25;1.25;1.00
76101;PMS7003;64830;46.910;6.354;2023-12-29T08:48:14;1.50;1.50;1.00
76101;PMS7003;64830;46.910;6.354;2023-12-29T08:50:39;1.00;1.00;1.00
76101;PMS7003;64830;46.910;6.354;2023-12-29T08:53:04;1.00;1.00;0.00
76101;PMS7003;64830;46.910;6.354;2023-12-29T08:55:30;1.00;1.00;0.50
76101;PMS7003;64830;46.910;6.354;2023-12-29T08:57:56;1.00;1.00;0.00
76101;PMS7003;64830;46.910;6.354;2023-12-29T09:00:22;1.25;0.00;0.00
76101;PMS7003;64830;46.910;6.354;2023-12-29T09:02:48;0.50;0.50;0.50
76101;PMS7003;64830;46.910;6.354;2023-12-29T09:05:13;1.00;0.50;0.50
76101;PMS7003;64830;46.910;6.354;2023-12-29T09:07:38;0.75;0.00;0.00
76101;PMS7003;64830;46.910;6.354;2023-12-29T09:10:04;0.00;0.00;0.00
76101;PMS7003;64830;46.910;6.354;2023-12-29T09:12:33;0.25;0.25;0.00
76101;PMS7003;64830;46.910;6.354;2023-12-29T09:14:59;0.25;0.25;0.00
76101;PMS7003;64830;46.910;6.354;2023-12-29T09:17:24;0.00;0.00;0.00
76101;PMS7003;64830;46.910;6.354;2023-12-29T09:19:49;0.50;0.50;0.00
76101;PMS7003;64830;46.910;6.354;2023-12-29T09:22:15;0.00;0.00;0.00
76101;PMS7003;64830;46.910;6.354;2023-12-29T09:24:41;0.00;0.00;0.00
76101;PMS7003;64830;46.910;6.354;2023-12-29T09:27:08;1.00;1.00;0.00
76101;PMS7003;64830;46.910;6.354;2023-12-29T09:29:34;1.00;0.75;0.00
76101;PMS7003;64830;46.910;6.354;2023-12-29T09:31:59;1.00;1.00;0.00
76101;PMS7003;64830;46.910;6.354;2023-12-29T09:34:24;1.25;1.00;1.00
76101;PMS7003;64830;46.910;6.354;2023-12-29T09:36:50;0.50;0.50;0.00
76101;PMS7003;64830;46.910;6.354;2023-12-29T09:39:15;0.00;0.00;0.00
76101;PMS7003;64830;46.910;6.354;2023-12-29T09:41:42;0.00;0.00;0.00
76101;PMS7003;64830;46.910;6.354;2023-12-29T09:44:13;1.75;0.00;0.00
76101;PMS7003;64830;46.910;6.354;2023-12-29T09:46:41;2.00;2.00;1.25
76101;PMS7003;64830;46.910;6.354;2023-12-29T09:49:08;1.00;1.00;1.00
76101;PMS7003;64830;46.910;6.354;2023-12-29T09:51:34;1.00;1.00;1.00
76101;PMS7003;64830;46.910;6.354;2023-12-29T09:54:02;1.00;1.00;1.00
76101;PMS7003;64830;46.910;6.354;2023-12-29T09:56:28;0.75;0.75;0.75
76101;PMS7003;64830;46.910;6.354;2023-12-29T09:58:54;0.00;0.00;0.00
76101;PMS7003;64830;46.910;6.354;2023-12-29T10:01:21;3.00;1.25;1.00
76101;PMS7003;64830;46.910;6.354;2023-12-29T10:03:48;0.50;0.50;0.00
76101;PMS7003;64830;46.910;6.354;2023-12-29T10:06:15;1.25;1.00;0.25
76101;PMS7003;64830;46.910;6.354;2023-12-29T10:08:45;1.00;1.00;1.00
76101;PMS7003;64830;46.910;6.354;2023-12-29T10:11:13;2.00;1.00;1.00
76101;PMS7003;64830;46.910;6.354;2023-12-29T10:13:42;2.00;1.00;1.00
76101;PMS7003;64830;46.910;6.354;2023-12-29T10:24:35;0.00;0.00;0.00
76101;PMS7003;64830;46.910;6.354;2023-12-29T10:27:01;1.75;1.75;1.75
76101;PMS7003;64830;46.910;6.354;2023-12-29T10:29:27;0.00;0.00;0.00
76101;PMS7003;64830;46.910;6.354;2023-12-29T10:31:52;1.75;0.75;0.75
76101;PMS7003;64830;46.910;6.354;2023-12-29T10:34:19;0.50;0.50;0.50
76101;PMS7003;64830;46.910;6.354;2023-12-29T10:36:51;1.00;1.00;0.75
76101;PMS7003;64830;46.910;6.354;2023-12-29T10:39:16;0.75;0.75;0.75
76101;PMS7003;64830;46.910;6.354;2023-12-29T10:41:42;1.00;1.00;0.75
76101;PMS7003;64830;46.910;6.354;2023-12-29T10:44:07;1.00;1.00;1.00
76101;PMS7003;64830;46.910;6.354;2023-12-29T10:46:34;2.00;0.75;0.25
76101;PMS7003;64830;46.910;6.354;2023-12-29T10:49:06;1.00;1.00;1.00
76101;PMS7003;64830;46.910;6.354;2023-12-29T10:51:36;0.00;0.00;0.00
76101;PMS7003;64830;46.910;6.354;2023-12-29T10:54:02;1.00;0.00;0.00
76101;PMS7003;64830;46.910;6.354;2023-12-29T10:56:28;0.75;0.00;0.00
76101;PMS7003;64830;46.910;6.354;2023-12-29T10:59:04;1.00;1.00;0.75
76101;PMS7003;64830;46.910;6.354;2023-12-29T11:01:36;1.00;1.00;0.25
76101;PMS7003;64830;46.910;6.354;2023-12-29T11:04:02;1.00;1.00;1.00
76101;PMS7003;64830;46.910;6.354;2023-12-29T11:06:41;0.00;0.00;0.00
76101;PMS7003;64830;46.910;6.354;2023-12-29T11:09:09;1.50;1.50;1.00
76101;PMS7003;64830;46.910;6.354;2023-12-29T11:11:36;1.00;1.00;0.75
76101;PMS7003;64830;46.910;6.354;2023-12-29T11:14:02;0.25;0.25;0.00
76101;PMS7003;64830;46.910;6.354;2023-12-29T11:16:29;0.50;0.50;0.25
76101;PMS7003;64830;46.910;6.354;2023-12-29T11:18:56;0.00;0.00;0.00
76101;PMS7003;64830;46.910;6.354;2023-12-29T11:21:24;2.00;2.00;2.00
76101;PMS7003;64830;46.910;6.354;2023-12-29T11:23:52;0.00;0.00;0.00
76101;PMS7003;64830;46.910;6.354;2023-12-29T11:26:18;0.00;0.00;0.00
76101;PMS7003;64830;46.910;6.354;2023-12-29T11:28:46;0.00;0.00;0.00
76101;PMS7003;64830;46.910;6.354;2023-12-29T11:31:13;1.00;0.00;0.00
76101;PMS7003;64830;46.910;6.354;2023-12-29T11:33:42;1.00;1.00;0.50
76101;PMS7003;64830;46.910;6.354;2023-12-29T11:36:16;2.25;1.25;1.00
76101;PMS7003;64830;46.910;6.354;2023-12-29T11:41:40;2.00;2.00;2.00
76101;PMS7003;64830;46.910;6.354;2023-12-29T11:44:08;2.00;1.25;1.00
76101;PMS7003;64830;46.910;6.354;2023-12-29T11:46:39;0.50;0.00;0.00
76101;PMS7003;64830;46.910;6.354;2023-12-29T11:49:08;1.00;1.00;1.00
76101;PMS7003;64830;46.910;6.354;2023-12-29T11:51:46;1.50;1.50;1.00
76101;PMS7003;64830;46.910;6.354;2023-12-29T11:54:26;0.00;0.00;0.00
76101;PMS7003;64830;46.910;6.354;2023-12-29T11:56:52;0.50;0.50;0.00
76101;PMS7003;64830;46.910;6.354;2023-12-29T11:59:19;0.00;0.00;0.00
76101;PMS7003;64830;46.910;6.354;2023-12-29T12:07:16;0.00;0.00;0.00
76101;PMS7003;64830;46.910;6.354;2023-12-29T12:09:42;1.00;1.00;1.00
76101;PMS7003;64830;46.910;6.354;2023-12-29T12:12:08;0.00;0.00;0.00
76101;PMS7003;64830;46.910;6.354;2023-12-29T12:14:42;1.00;1.00;1.00
76101;PMS7003;64830;46.910;6.354;2023-12-29T12:20:15;0.00;0.00;0.00
76101;PMS7003;64830;46.910;6.354;2023-12-29T12:22:41;0.00;0.00;0.00
76101;PMS7003;64830;46.910;6.354;2023-12-29T12:25:09;1.25;1.00;1.00
76101;PMS7003;64830;46.910;6.354;2023-12-29T12:27:37;1.50;1.00;1.00
76101;PMS7003;64830;46.910;6.354;2023-12-29T12:30:03;1.00;1.00;0.50
76101;PMS7003;64830;46.910;6.354;2023-12-29T12:32:29;1.00;0.75;0.25
76101;PMS7003;64830;46.910;6.354;2023-12-29T12:34:55;0.00;0.00;0.00
76101;PMS7003;64830;46.910;6.354;2023-12-29T12:37:25;0.50;0.50;0.50
76101;PMS7003;64830;46.910;6.354;2023-12-29T12:39:52;1.00;1.00;1.00
76101;PMS7003;64830;46.910;6.354;2023-12-29T12:42:18;0.00;0.00;0.00
76101;PMS7003;64830;46.910;6.354;2023-12-29T12:44:49;0.00;0.00;0.00
76101;PMS7003;64830;46.910;6.354;2023-12-29T12:47:32;1.00;0.00;0.00
76101;PMS7003;64830;46.910;6.354;2023-12-29T12:50:01;0.00;0.00;0.00
76101;PMS7003;64830;46.910;6.354;2023-12-29T12:52:30;1.00;1.00;0.50
76101;PMS7003;64830;46.910;6.354;2023-12-29T12:54:57;2.00;2.00;1.00
76101;PMS7003;64830;46.910;6.354;2023-12-29T12:57:22;2.25;1.25;1.00
76101;PMS7003;64830;46.910;6.354;2023-12-29T12:59:48;1.00;1.00;1.00
76101;PMS7003;64830;46.910;6.354;2023-12-29T13:02:16;2.00;1.00;1.00
76101;PMS7003;64830;46.910;6.354;2023-12-29T13:04:42;2.00;1.25;1.00
76101;PMS7003;64830;46.910;6.354;2023-12-29T13:07:08;1.00;1.00;1.00
76101;PMS7003;64830;46.910;6.354;2023-12-29T13:09:35;1.75;1.75;1.75
76101;PMS7003;64830;46.910;6.354;2023-12-29T13:12:35;0.00;0.00;0.00
76101;PMS7003;64830;46.910;6.354;2023-12-29T13:14:53;0.50;0.00;0.00
76101;PMS7003;64830;46.910;6.354;2023-12-29T13:17:30;1.00;1.00;1.00
76101;PMS7003;64830;46.910;6.354;2023-12-29T13:19:56;1.75;0.75;0.25
76101;PMS7003;64830;46.910;6.354;2023-12-29T13:22:22;2.00;0.25;0.00
76101;PMS7003;64830;46.910;6.354;2023-12-29T13:24:48;1.00;1.00;1.00
76101;PMS7003;64830;46.910;6.354;2023-12-29T13:27:14;0.00;0.00;0.00
76101;PMS7003;64830;46.910;6.354;2023-12-29T13:29:40;1.00;0.00;0.00
76101;PMS7003;64830;46.910;6.354;2023-12-29T13:32:10;2.00;1.00;1.00
76101;PMS7003;64830;46.910;6.354;2023-12-29T13:35:04;0.75;0.75;0.00
76101;PMS7003;64830;46.910;6.354;2023-12-29T13:37:37;0.00;0.00;0.00
76101;PMS7003;64830;46.910;6.354;2023-12-29T13:40:31;2.25;0.75;0.50
76101;PMS7003;64830;46.910;6.354;2023-12-29T13:43:02;1.00;1.00;0.75
76101;PMS7003;64830;46.910;6.354;2023-12-29T13:45:29;2.00;1.50;1.00
76101;PMS7003;64830;46.910;6.354;2023-12-29T13:47:56;0.25;0.25;0.00
76101;PMS7003;64830;46.910;6.354;2023-12-29T13:50:23;3.00;1.50;1.50
76101;PMS7003;64830;46.910;6.354;2023-12-29T13:52:49;1.00;1.00;1.00
76101;PMS7003;64830;46.910;6.354;2023-12-29T13:55:21;3.50;2.25;2.00
76101;PMS7003;64830;46.910;6.354;2023-12-29T13:57:48;3.00;2.00;1.00
76101;PMS7003;64830;46.910;6.354;2023-12-29T14:00:17;0.50;0.50;0.50
76101;PMS7003;64830;46.910;6.354;2023-12-29T14:02:47;1.00;1.00;1.00
76101;PMS7003;64830;46.910;6.354;2023-12-29T14:05:31;3.00;3.00;2.50
76101;PMS7003;64830;46.910;6.354;2023-12-29T14:08:18;3.50;2.00;2.00
76101;PMS7003;64830;46.910;6.354;2023-12-29T14:10:49;3.25;2.00;2.00
76101;PMS7003;64830;46.910;6.354;2023-12-29T14:13:15;3.25;3.00;1.50
76101;PMS7003;64830;46.910;6.354;2023-12-29T14:15:42;1.50;1.50;1.00
76101;PMS7003;64830;46.910;6.354;2023-12-29T14:20:34;1.50;1.50;1.00
76101;PMS7003;64830;46.910;6.354;2023-12-29T14:23:06;3.00;3.00;2.75
76101;PMS7003;64830;46.910;6.354;2023-12-29T14:25:35;3.25;3.25;2.75
76101;PMS7003;64830;46.910;6.354;2023-12-29T14:28:13;3.25;3.00;2.00
76101;PMS7003;64830;46.910;6.354;2023-12-29T14:30:40;3.25;2.00;1.25
76101;PMS7003;64830;46.910;6.354;2023-12-29T14:33:05;3.00;1.25;1.00
76101;PMS7003;64830;46.910;6.354;2023-12-29T14:35:31;3.00;3.00;3.00
76101;PMS7003;64830;46.910;6.354;2023-12-29T14:37:56;3.00;0.50;0.50
76101;PMS7003;64830;46.910;6.354;2023-12-29T14:40:22;3.25;3.00;2.00
76101;PMS7003;64830;46.910;6.354;2023-12-29T14:42:47;3.00;3.00;2.50
76101;PMS7003;64830;46.910;6.354;2023-12-29T14:45:13;6.00;4.50;3.00
76101;PMS7003;64830;46.910;6.354;2023-12-29T14:47:38;3.00;2.00;1.00
76101;PMS7003;64830;46.910;6.354;2023-12-29T14:50:04;2.50;1.25;1.25